createdAt,value
2017-04-19T04:00:53.297Z,0
2017-04-19T04:01:18.810Z,0
2017-04-19T04:01:44.297Z,0
2017-04-19T04:02:09.744Z,0
2017-04-19T04:02:35.335Z,0
2017-04-19T04:03:00.710Z,0
2017-04-19T04:03:26.240Z,0
2017-04-19T04:03:51.704Z,0
2017-04-19T04:04:17.282Z,0
2017-04-19T04:04:42.709Z,0
2017-04-19T04:05:08.190Z,0
2017-04-19T04:05:33.703Z,0
2017-04-19T04:05:59.141Z,0
2017-04-19T04:06:24.615Z,0
2017-04-19T04:06:50.074Z,0
2017-04-19T04:07:15.557Z,0
2017-04-19T04:07:41.163Z,0
2017-04-19T04:08:06.660Z,0
2017-04-19T04:08:32.096Z,0
2017-04-19T04:08:57.568Z,0
2017-04-19T04:09:23.093Z,0
2017-04-19T04:09:48.519Z,0
2017-04-19T04:10:14.045Z,0
2017-04-19T04:10:39.464Z,0
2017-04-19T04:11:04.945Z,0
2017-04-19T04:11:30.479Z,0
2017-04-19T04:11:55.973Z,0
2017-04-19T04:12:21.441Z,0
2017-04-19T04:12:46.940Z,0
2017-04-19T04:13:12.398Z,0
2017-04-19T04:13:37.897Z,0
2017-04-19T04:14:03.412Z,0
2017-04-19T04:14:28.841Z,0
2017-04-19T04:14:54.332Z,0
2017-04-19T04:15:19.820Z,0
2017-04-19T04:15:45.350Z,0
2017-04-19T04:16:10.770Z,0
2017-04-19T04:16:36.256Z,0
2017-04-19T04:17:01.768Z,0
2017-04-19T04:17:27.262Z,0
2017-04-19T04:17:52.751Z,0
2017-04-19T04:18:18.202Z,0
2017-04-19T04:18:43.670Z,0
2017-04-19T04:19:09.188Z,0
2017-04-19T04:19:34.658Z,0
2017-04-19T04:20:00.157Z,0
2017-04-19T04:20:25.635Z,0
2017-04-19T04:20:51.127Z,0
2017-04-19T04:21:16.616Z,0
2017-04-19T04:21:42.117Z,0
2017-04-19T04:22:07.581Z,0
2017-04-19T04:22:33.097Z,0
2017-04-19T04:22:58.596Z,5
2017-04-19T04:23:24.091Z,5
2017-04-19T04:23:49.583Z,5
2017-04-19T04:24:15.069Z,5
2017-04-19T04:24:40.558Z,5
2017-04-19T04:25:06.067Z,5
2017-04-19T04:25:31.525Z,5
2017-04-19T04:25:57.033Z,5
2017-04-19T04:26:22.531Z,5
2017-04-19T04:26:47.994Z,5
2017-04-19T04:27:13.458Z,5
2017-04-19T04:27:38.951Z,5
2017-04-19T04:28:04.420Z,5
2017-04-19T04:28:29.933Z,5
2017-04-19T04:28:55.438Z,5
2017-04-19T04:29:20.915Z,5
2017-04-19T04:29:46.385Z,5
2017-04-19T04:30:11.895Z,5
2017-04-19T04:30:37.357Z,5
2017-04-19T04:31:02.857Z,5
2017-04-19T04:31:28.316Z,5
2017-04-19T04:31:53.818Z,10
2017-04-19T04:32:19.301Z,10
2017-04-19T04:32:44.801Z,10
2017-04-19T04:33:10.280Z,10
2017-04-19T04:33:35.763Z,10
2017-04-19T04:34:01.274Z,10
2017-04-19T04:34:26.803Z,10
2017-04-19T04:34:52.323Z,10
2017-04-19T04:35:17.771Z,10
2017-04-19T04:35:43.270Z,10
2017-04-19T04:36:08.764Z,10
2017-04-19T04:36:34.283Z,10
2017-04-19T04:36:59.760Z,10
2017-04-19T04:37:25.244Z,10
2017-04-19T04:37:50.759Z,10
2017-04-19T04:38:16.226Z,10
2017-04-19T04:38:41.705Z,10
2017-04-19T04:39:07.193Z,15
2017-04-19T04:39:32.649Z,10
2017-04-19T04:39:58.130Z,10
2017-04-19T04:40:23.652Z,10
2017-04-19T04:40:49.150Z,10
2017-04-19T04:41:14.640Z,15
2017-04-19T04:41:40.129Z,15
2017-04-19T04:42:05.615Z,15
2017-04-19T04:42:31.093Z,15
2017-04-19T04:42:56.573Z,15
2017-04-19T04:43:22.077Z,15
2017-04-19T04:43:47.550Z,15
2017-04-19T04:44:13.062Z,15
2017-04-19T04:44:38.539Z,15
2017-04-19T04:45:04.022Z,15
2017-04-19T04:45:29.516Z,20
2017-04-19T04:45:55.009Z,20
2017-04-19T04:46:20.510Z,20
2017-04-19T04:46:46.019Z,20
2017-04-19T04:47:11.508Z,20
2017-04-19T04:47:37.019Z,20
2017-04-19T04:48:02.527Z,20
2017-04-19T04:48:27.999Z,20
2017-04-19T04:48:53.488Z,20
2017-04-19T04:49:18.967Z,20
2017-04-19T04:49:44.462Z,20
2017-04-19T04:50:09.959Z,20
2017-04-19T04:50:35.431Z,20
2017-04-19T04:51:00.930Z,20
2017-04-19T04:51:26.415Z,25
2017-04-19T04:51:51.897Z,25
2017-04-19T04:52:17.377Z,25
2017-04-19T04:52:42.848Z,25
2017-04-19T04:53:08.334Z,25
2017-04-19T04:53:33.846Z,25
2017-04-19T04:53:59.334Z,25
2017-04-19T04:54:24.830Z,25
2017-04-19T04:54:50.336Z,25
2017-04-19T04:55:15.822Z,25
2017-04-19T04:55:41.332Z,25
2017-04-19T04:56:06.815Z,25
2017-04-19T04:56:32.293Z,25
2017-04-19T04:56:57.798Z,25
2017-04-19T04:57:23.280Z,25
2017-04-19T04:57:48.803Z,25
2017-04-19T04:58:14.278Z,30
2017-04-19T04:58:39.767Z,30
2017-04-19T04:59:05.258Z,30
2017-04-19T04:59:30.719Z,30
2017-04-19T04:59:56.205Z,30
2017-04-19T05:00:21.690Z,30
2017-04-19T05:00:47.172Z,30
2017-04-19T05:01:12.670Z,30
2017-04-19T05:01:38.177Z,30
2017-04-19T05:02:03.656Z,30
2017-04-19T05:02:29.126Z,30
2017-04-19T05:02:54.634Z,30
2017-04-19T05:03:20.122Z,30
2017-04-19T05:03:45.614Z,30
2017-04-19T05:04:11.102Z,30
2017-04-19T05:04:36.598Z,35
2017-04-19T05:05:02.106Z,35
2017-04-19T05:05:27.578Z,35
2017-04-19T05:05:53.049Z,35
2017-04-19T05:06:18.525Z,35
2017-04-19T05:06:44.038Z,35
2017-04-19T05:07:09.540Z,35
2017-04-19T05:07:35.038Z,35
2017-04-19T05:08:00.523Z,35
2017-04-19T05:08:26.056Z,35
2017-04-19T05:08:51.554Z,35
2017-04-19T05:09:17.050Z,35
2017-04-19T05:09:42.526Z,35
2017-04-19T05:10:07.989Z,35
2017-04-19T05:10:33.482Z,35
2017-04-19T05:10:59.005Z,35
2017-04-19T05:11:24.502Z,35
2017-04-19T05:11:49.998Z,40
2017-04-19T05:12:15.507Z,40
2017-04-19T05:12:40.987Z,40
2017-04-19T05:13:06.479Z,40
2017-04-19T05:13:31.963Z,40
2017-04-19T05:13:57.427Z,40
2017-04-19T05:14:22.920Z,40
2017-04-19T05:14:48.426Z,40
2017-04-19T05:15:13.920Z,40
2017-04-19T05:15:39.414Z,40
2017-04-19T05:16:04.869Z,40
2017-04-19T05:16:30.364Z,40
2017-04-19T05:16:55.853Z,40
2017-04-19T05:17:21.354Z,40
2017-04-19T05:17:46.842Z,40
2017-04-19T05:18:12.334Z,40
2017-04-19T05:18:37.811Z,40
2017-04-19T05:19:03.308Z,40
2017-04-19T05:19:28.788Z,45
2017-04-19T05:19:54.281Z,45
2017-04-19T05:20:19.785Z,45
2017-04-19T05:20:45.276Z,45
2017-04-19T05:21:10.759Z,45
2017-04-19T05:21:36.239Z,45
2017-04-19T05:22:01.754Z,45
2017-04-19T05:22:27.266Z,45
2017-04-19T05:22:52.738Z,45
2017-04-19T05:23:18.217Z,45
2017-04-19T05:23:43.711Z,45
2017-04-19T05:24:09.165Z,45
2017-04-19T05:24:34.661Z,45
2017-04-19T05:25:00.122Z,45
2017-04-19T05:25:25.622Z,45
2017-04-19T05:25:51.104Z,45
2017-04-19T05:26:16.566Z,45
2017-04-19T05:26:42.068Z,45
2017-04-19T05:27:07.578Z,45
2017-04-19T05:27:33.074Z,45
2017-04-19T05:27:58.550Z,45
2017-04-19T05:28:24.049Z,50
2017-04-19T05:28:49.547Z,50
2017-04-19T05:29:15.027Z,50
2017-04-19T05:29:40.514Z,50
2017-04-19T05:30:06.026Z,50
2017-04-19T05:30:31.518Z,50
2017-04-19T05:30:57.011Z,50
2017-04-19T05:31:22.479Z,50
2017-04-19T05:31:47.969Z,50
2017-04-19T05:32:13.460Z,50
2017-04-19T05:32:38.916Z,50
2017-04-19T05:33:04.392Z,50
2017-04-19T05:33:29.861Z,50
2017-04-19T05:33:55.338Z,50
2017-04-19T05:34:20.808Z,50
2017-04-19T05:34:46.259Z,50
2017-04-19T05:35:11.757Z,50
2017-04-19T05:35:37.255Z,50
2017-04-19T05:36:02.768Z,50
2017-04-19T05:36:28.263Z,50
2017-04-19T05:36:53.777Z,50
2017-04-19T05:37:19.246Z,50
2017-04-19T05:37:44.736Z,50
2017-04-19T05:38:10.254Z,55
2017-04-19T05:38:35.719Z,55
2017-04-19T05:39:01.209Z,55
2017-04-19T05:39:26.683Z,55
2017-04-19T05:39:52.156Z,55
2017-04-19T05:40:17.637Z,55
2017-04-19T05:40:43.145Z,55
2017-04-19T05:41:08.630Z,55
2017-04-19T05:41:34.110Z,55
2017-04-19T05:41:59.632Z,55
2017-04-19T05:42:25.098Z,55
2017-04-19T05:42:50.569Z,55
2017-04-19T05:43:16.055Z,55
2017-04-19T05:43:41.538Z,55
2017-04-19T05:44:07.009Z,55
2017-04-19T05:44:32.504Z,55
2017-04-19T05:44:57.979Z,55
2017-04-19T05:45:23.457Z,55
2017-04-19T05:45:48.921Z,55
2017-04-19T05:46:14.406Z,55
2017-04-19T05:46:39.902Z,55
2017-04-19T05:47:05.369Z,55
2017-04-19T05:47:30.856Z,55
2017-04-19T05:47:56.329Z,55
2017-04-19T05:48:21.823Z,55
2017-04-19T05:48:47.305Z,55
2017-04-19T05:49:12.805Z,55
2017-04-19T05:49:38.313Z,60
2017-04-19T05:50:03.779Z,60
2017-04-19T05:50:29.265Z,60
2017-04-19T05:50:54.762Z,60
2017-04-19T05:51:20.261Z,60
2017-04-19T05:51:45.767Z,60
2017-04-19T05:52:11.300Z,60
2017-04-19T05:52:36.795Z,60
2017-04-19T05:53:02.279Z,60
2017-04-19T05:53:27.769Z,60
2017-04-19T05:53:53.229Z,60
2017-04-19T05:54:18.725Z,60
2017-04-19T05:54:44.219Z,60
2017-04-19T05:55:09.717Z,60
2017-04-19T05:55:35.209Z,60
2017-04-19T05:56:00.723Z,60
2017-04-19T05:56:26.199Z,60
2017-04-19T05:56:51.701Z,60
2017-04-19T05:57:17.171Z,60
2017-04-19T05:57:42.640Z,60
2017-04-19T05:58:08.135Z,60
2017-04-19T05:58:33.601Z,60
2017-04-19T05:58:59.063Z,60
2017-04-19T05:59:24.565Z,60
2017-04-19T05:59:50.086Z,60
2017-04-19T06:00:15.576Z,60
2017-04-19T06:00:41.057Z,60
2017-04-19T06:01:06.539Z,60
2017-04-19T06:01:32.032Z,60
2017-04-19T06:01:57.557Z,60
2017-04-19T06:02:23.047Z,65
2017-04-19T06:02:48.550Z,65
2017-04-19T06:03:14.026Z,65
2017-04-19T06:03:39.496Z,65
2017-04-19T06:04:04.978Z,65
2017-04-19T06:04:30.459Z,65
2017-04-19T06:04:55.952Z,65
2017-04-19T06:05:21.419Z,65
2017-04-19T06:05:46.914Z,65
2017-04-19T06:06:12.395Z,65
2017-04-19T06:06:37.881Z,65
2017-04-19T06:07:03.363Z,65
2017-04-19T06:07:28.846Z,65
2017-04-19T06:07:54.329Z,65
2017-04-19T06:08:19.821Z,65
2017-04-19T06:08:45.301Z,65
2017-04-19T06:09:10.828Z,65
2017-04-19T06:09:36.289Z,65
2017-04-19T06:10:01.782Z,65
2017-04-19T06:10:27.274Z,65
2017-04-19T06:10:52.767Z,65
2017-04-19T06:11:18.231Z,65
2017-04-19T06:11:43.714Z,65
2017-04-19T06:12:09.192Z,65
2017-04-19T06:12:34.680Z,65
2017-04-19T06:13:00.167Z,65
2017-04-19T06:13:25.679Z,65
2017-04-19T06:13:51.151Z,65
2017-04-19T06:14:16.641Z,65
2017-04-19T06:14:42.127Z,65
2017-04-19T06:15:07.590Z,65
2017-04-19T06:15:33.067Z,65
2017-04-19T06:15:58.552Z,65
2017-04-19T06:16:24.029Z,65
2017-04-19T06:16:49.516Z,65
2017-04-19T06:17:15.013Z,65
2017-04-19T06:17:40.491Z,65
2017-04-19T06:18:05.953Z,65
2017-04-19T06:18:31.418Z,70
2017-04-19T06:18:56.882Z,70
2017-04-19T06:19:22.370Z,70
2017-04-19T06:19:47.882Z,70
2017-04-19T06:20:13.377Z,70
2017-04-19T06:20:38.873Z,70
2017-04-19T06:21:04.356Z,70
2017-04-19T06:21:29.833Z,70
2017-04-19T06:21:55.327Z,70
2017-04-19T06:22:20.843Z,70
2017-04-19T06:22:46.332Z,70
2017-04-19T06:23:11.849Z,70
2017-04-19T06:23:37.341Z,70
2017-04-19T06:24:02.815Z,70
2017-04-19T06:24:28.304Z,70
2017-04-19T06:24:53.769Z,70
2017-04-19T06:25:19.259Z,70
2017-04-19T06:25:44.747Z,70
2017-04-19T06:26:10.226Z,70
2017-04-19T06:26:35.700Z,70
2017-04-19T06:27:01.184Z,70
2017-04-19T06:27:26.679Z,70
2017-04-19T06:27:52.172Z,70
2017-04-19T06:28:17.641Z,70
2017-04-19T06:28:43.111Z,70
2017-04-19T06:29:08.608Z,70
2017-04-19T06:29:34.085Z,70
2017-04-19T06:29:59.588Z,70
2017-04-19T06:30:25.112Z,70
2017-04-19T06:30:50.599Z,70
2017-04-19T06:31:16.098Z,70
2017-04-19T06:31:41.598Z,70
2017-04-19T06:32:07.084Z,70
2017-04-19T06:32:32.570Z,70
2017-04-19T06:32:58.052Z,70
2017-04-19T06:33:23.540Z,70
2017-04-19T06:33:49.034Z,70
2017-04-19T06:34:14.519Z,70
2017-04-19T06:34:40.016Z,70
2017-04-19T06:35:05.498Z,70
2017-04-19T06:35:30.985Z,70
2017-04-19T06:35:56.466Z,75
2017-04-19T06:36:21.966Z,75
2017-04-19T06:36:47.465Z,75
2017-04-19T06:37:12.940Z,75
2017-04-19T06:37:38.442Z,75
2017-04-19T06:38:03.935Z,75
2017-04-19T06:38:29.398Z,75
2017-04-19T06:38:54.927Z,75
2017-04-19T06:39:20.433Z,75
2017-04-19T06:39:45.927Z,75
2017-04-19T06:40:11.419Z,75
2017-04-19T06:40:36.903Z,75
2017-04-19T06:41:02.978Z,75
2017-04-19T06:41:28.454Z,75
2017-04-19T06:41:53.958Z,75
2017-04-19T06:42:19.470Z,75
2017-04-19T06:42:44.948Z,75
2017-04-19T06:43:10.442Z,75
2017-04-19T06:43:35.901Z,75
2017-04-19T06:44:01.382Z,75
2017-04-19T06:44:26.860Z,75
2017-04-19T06:44:52.343Z,75
2017-04-19T06:45:17.795Z,75
2017-04-19T06:45:43.295Z,75
2017-04-19T06:46:08.823Z,75
2017-04-19T06:46:34.323Z,75
2017-04-19T06:46:59.805Z,75
2017-04-19T06:47:25.297Z,75
2017-04-19T06:47:50.819Z,75
2017-04-19T06:48:16.307Z,75
2017-04-19T06:48:41.806Z,75
2017-04-19T06:49:07.278Z,75
2017-04-19T06:49:32.804Z,75
2017-04-19T06:49:58.287Z,75
2017-04-19T06:50:23.748Z,75
2017-04-19T06:50:49.245Z,75
2017-04-19T06:51:14.735Z,75
2017-04-19T06:51:40.235Z,75
2017-04-19T06:52:05.697Z,75
2017-04-19T06:52:31.194Z,75
2017-04-19T06:52:56.659Z,75
2017-04-19T06:53:22.179Z,75
2017-04-19T06:53:47.641Z,75
2017-04-19T06:54:13.125Z,75
2017-04-19T06:54:38.599Z,75
2017-04-19T06:55:04.058Z,75
2017-04-19T06:55:29.538Z,75
2017-04-19T06:55:55.017Z,75
2017-04-19T06:56:20.521Z,75
2017-04-19T06:56:45.980Z,75
2017-04-19T06:57:11.465Z,75
2017-04-19T06:57:36.933Z,75
2017-04-19T06:58:02.431Z,75
2017-04-19T06:58:27.923Z,80
2017-04-19T06:58:53.428Z,80
2017-04-19T06:59:18.927Z,80
2017-04-19T06:59:44.421Z,80
2017-04-19T07:00:09.898Z,80
2017-04-19T07:00:35.381Z,80
2017-04-19T07:01:00.882Z,80
2017-04-19T07:01:26.377Z,80
2017-04-19T07:01:51.886Z,80
2017-04-19T07:02:17.333Z,80
2017-04-19T07:02:42.824Z,80
2017-04-19T07:03:08.306Z,80
2017-04-19T07:03:33.768Z,80
2017-04-19T07:03:59.266Z,80
2017-04-19T07:04:24.712Z,80
2017-04-19T07:04:50.201Z,80
2017-04-19T07:05:15.683Z,80
2017-04-19T07:05:41.159Z,80
2017-04-19T07:06:06.647Z,80
2017-04-19T07:06:32.145Z,80
2017-04-19T07:06:57.612Z,80
2017-04-19T07:07:23.094Z,80
2017-04-19T07:07:48.572Z,80
2017-04-19T07:08:14.081Z,80
2017-04-19T07:08:39.558Z,80
2017-04-19T07:09:05.048Z,80
2017-04-19T07:09:30.549Z,80
2017-04-19T07:09:56.058Z,80
2017-04-19T07:10:21.548Z,80
2017-04-19T07:10:47.055Z,80
2017-04-19T07:11:12.552Z,80
2017-04-19T07:11:38.049Z,80
2017-04-19T07:12:03.538Z,80
2017-04-19T07:12:29.048Z,80
2017-04-19T07:12:54.547Z,80
2017-04-19T07:13:20.030Z,80
2017-04-19T07:13:45.538Z,80
2017-04-19T07:14:11.014Z,80
2017-04-19T07:14:36.522Z,80
2017-04-19T07:15:02.003Z,80
2017-04-19T07:15:27.487Z,80
2017-04-19T07:15:52.988Z,80
2017-04-19T07:16:18.483Z,80
2017-04-19T07:16:43.977Z,80
2017-04-19T07:17:09.459Z,80
2017-04-19T07:17:34.941Z,85
2017-04-19T07:18:00.475Z,85
2017-04-19T07:18:25.980Z,85
2017-04-19T07:18:51.461Z,85
2017-04-19T07:19:16.961Z,80
2017-04-19T07:19:42.453Z,80
2017-04-19T07:20:07.963Z,80
2017-04-19T07:20:33.447Z,85
2017-04-19T07:20:58.926Z,85
2017-04-19T07:21:24.418Z,85
2017-04-19T07:21:49.918Z,85
2017-04-19T07:22:15.433Z,85
2017-04-19T07:22:40.907Z,85
2017-04-19T07:23:06.424Z,85
2017-04-19T07:23:31.945Z,90
2017-04-19T07:23:57.459Z,100
2017-04-19T07:24:22.938Z,100
2017-04-19T07:24:48.437Z,100
2017-04-19T07:25:13.948Z,90
2017-04-19T07:25:39.439Z,90
2017-04-19T07:26:04.897Z,85
2017-04-19T07:26:30.423Z,85
2017-04-19T07:26:55.916Z,85
2017-04-19T07:27:21.408Z,85
2017-04-19T07:27:46.910Z,90
2017-04-19T07:28:12.419Z,95
2017-04-19T07:28:37.908Z,90
2017-04-19T07:29:03.394Z,95
2017-04-19T07:29:28.872Z,100
2017-04-19T07:29:54.367Z,100
2017-04-19T07:30:19.854Z,95
2017-04-19T07:30:45.328Z,95
2017-04-19T07:31:10.814Z,95
2017-04-19T07:31:36.293Z,90
2017-04-19T07:32:01.790Z,90
2017-04-19T07:32:27.280Z,90
2017-04-19T07:32:52.756Z,90
2017-04-19T07:33:18.256Z,90
2017-04-19T07:33:43.762Z,95
2017-04-19T07:34:09.245Z,90
2017-04-19T07:34:34.722Z,85
2017-04-19T07:35:00.244Z,80
2017-04-19T07:35:25.727Z,80
2017-04-19T07:35:51.223Z,80
2017-04-19T07:36:16.707Z,85
2017-04-19T07:36:42.187Z,85
2017-04-19T07:37:07.682Z,85
2017-04-19T07:37:33.165Z,90
2017-04-19T07:37:58.671Z,90
2017-04-19T07:38:24.155Z,85
2017-04-19T07:38:49.633Z,90
2017-04-19T07:39:15.112Z,100
2017-04-19T07:39:40.599Z,95
2017-04-19T07:40:06.107Z,90
2017-04-19T07:40:31.599Z,95
2017-04-19T07:40:57.109Z,95
2017-04-19T07:41:22.602Z,95
2017-04-19T07:41:48.093Z,100
2017-04-19T07:42:13.584Z,110
2017-04-19T07:42:39.073Z,145
2017-04-19T07:43:04.597Z,155
2017-04-19T07:43:30.105Z,145
2017-04-19T07:43:55.603Z,125
2017-04-19T07:44:21.123Z,110
2017-04-19T07:44:46.606Z,110
2017-04-19T07:45:12.106Z,120
2017-04-19T07:45:37.574Z,125
2017-04-19T07:46:03.054Z,125
2017-04-19T07:46:28.604Z,135
2017-04-19T07:46:54.081Z,175
2017-04-19T07:47:19.584Z,210
2017-04-19T07:47:45.082Z,205
2017-04-19T07:48:10.564Z,180
2017-04-19T07:48:36.028Z,170
2017-04-19T07:49:01.525Z,155
2017-04-19T07:49:27.032Z,135
2017-04-19T07:49:52.529Z,130
2017-04-19T07:50:18.004Z,125
2017-04-19T07:50:43.503Z,125
2017-04-19T07:51:08.985Z,135
2017-04-19T07:51:34.482Z,155
2017-04-19T07:51:59.975Z,160
2017-04-19T07:52:25.469Z,155
2017-04-19T07:52:50.951Z,155
2017-04-19T07:53:16.436Z,160
2017-04-19T07:53:41.920Z,160
2017-04-19T07:54:07.395Z,155
2017-04-19T07:54:32.877Z,145
2017-04-19T07:54:58.344Z,150
2017-04-19T07:55:23.837Z,145
2017-04-19T07:55:49.369Z,135
2017-04-19T07:56:14.870Z,145
2017-04-19T07:56:40.364Z,160
2017-04-19T07:57:05.827Z,165
2017-04-19T07:57:31.379Z,155
2017-04-19T07:57:56.870Z,145
2017-04-19T07:58:22.340Z,150
2017-04-19T07:58:47.828Z,160
2017-04-19T07:59:13.327Z,175
2017-04-19T07:59:38.826Z,180
2017-04-19T08:00:04.288Z,185
2017-04-19T08:00:29.777Z,190
2017-04-19T08:00:55.252Z,170
2017-04-19T08:01:20.761Z,170
2017-04-19T08:01:46.249Z,165
2017-04-19T08:02:11.759Z,180
2017-04-19T08:02:37.262Z,205
2017-04-19T08:03:02.732Z,225
2017-04-19T08:03:28.200Z,245
2017-04-19T08:03:53.697Z,230
2017-04-19T08:04:19.173Z,200
2017-04-19T08:04:44.662Z,180
2017-04-19T08:05:10.154Z,175
2017-04-19T08:05:35.656Z,180
2017-04-19T08:06:01.159Z,190
2017-04-19T08:06:26.655Z,195
2017-04-19T08:06:52.133Z,185
2017-04-19T08:07:17.628Z,170
2017-04-19T08:07:43.109Z,155
2017-04-19T08:08:08.578Z,150
2017-04-19T08:08:34.048Z,145
2017-04-19T08:08:59.546Z,140
2017-04-19T08:09:25.026Z,145
2017-04-19T08:09:50.527Z,155
2017-04-19T08:10:16.014Z,160
2017-04-19T08:10:41.501Z,170
2017-04-19T08:11:06.998Z,165
2017-04-19T08:11:32.498Z,175
2017-04-19T08:11:57.981Z,200
2017-04-19T08:12:23.477Z,215
2017-04-19T08:12:48.981Z,210
2017-04-19T08:13:14.513Z,195
2017-04-19T08:13:39.984Z,185
2017-04-19T08:14:05.466Z,185
2017-04-19T08:14:30.963Z,185
2017-04-19T08:14:56.429Z,200
2017-04-19T08:15:21.936Z,225
2017-04-19T08:15:47.409Z,225
2017-04-19T08:16:12.878Z,205
2017-04-19T08:16:38.343Z,200
2017-04-19T08:17:03.823Z,190
2017-04-19T08:17:29.332Z,170
2017-04-19T08:17:54.839Z,160
2017-04-19T08:18:20.342Z,160
2017-04-19T08:18:45.820Z,165
2017-04-19T08:19:11.287Z,175
2017-04-19T08:19:36.765Z,180
2017-04-19T08:20:02.249Z,200
2017-04-19T08:20:27.738Z,195
2017-04-19T08:20:53.183Z,195
2017-04-19T08:21:18.676Z,195
2017-04-19T08:21:44.160Z,190
2017-04-19T08:22:09.673Z,170
2017-04-19T08:22:35.140Z,155
2017-04-19T08:23:00.632Z,155
2017-04-19T08:23:26.106Z,145
2017-04-19T08:23:51.591Z,135
2017-04-19T08:24:17.079Z,130
2017-04-19T08:24:42.584Z,130
2017-04-19T08:25:08.079Z,130
2017-04-19T08:25:33.554Z,125
2017-04-19T08:25:59.029Z,125
2017-04-19T08:26:24.499Z,120
2017-04-19T08:26:49.985Z,120
2017-04-19T08:27:15.468Z,115
2017-04-19T08:27:40.966Z,115
2017-04-19T08:28:06.432Z,120
2017-04-19T08:28:31.922Z,125
2017-04-19T08:28:57.392Z,125
2017-04-19T08:29:22.898Z,125
2017-04-19T08:29:48.360Z,125
2017-04-19T08:30:13.851Z,125
2017-04-19T08:30:39.328Z,125
2017-04-19T08:31:04.828Z,125
2017-04-19T08:31:30.338Z,130
2017-04-19T08:31:55.812Z,135
2017-04-19T08:32:21.305Z,130
2017-04-19T08:32:46.784Z,130
2017-04-19T08:33:12.274Z,130
2017-04-19T08:33:37.771Z,125
2017-04-19T08:34:03.238Z,125
2017-04-19T08:34:28.725Z,125
2017-04-19T08:34:54.225Z,135
2017-04-19T08:35:19.703Z,150
2017-04-19T08:35:45.185Z,160
2017-04-19T08:36:10.677Z,155
2017-04-19T08:36:36.213Z,160
2017-04-19T08:37:01.701Z,160
2017-04-19T08:37:27.209Z,160
2017-04-19T08:37:52.701Z,160
2017-04-19T08:38:18.196Z,150
2017-04-19T08:38:43.677Z,145
2017-04-19T08:39:09.145Z,140
2017-04-19T08:39:34.613Z,145
2017-04-19T08:40:00.088Z,150
2017-04-19T08:40:25.575Z,145
2017-04-19T08:40:51.053Z,140
2017-04-19T08:41:16.542Z,140
2017-04-19T08:41:42.019Z,150
2017-04-19T08:42:07.516Z,150
2017-04-19T08:42:33.023Z,150
2017-04-19T08:42:58.535Z,140
2017-04-19T08:43:24.047Z,135
2017-04-19T08:43:49.551Z,125
2017-04-19T08:44:15.037Z,125
2017-04-19T08:44:40.510Z,125
2017-04-19T08:45:06.016Z,130
2017-04-19T08:45:31.496Z,130
2017-04-19T08:45:57.026Z,125
2017-04-19T08:46:22.526Z,130
2017-04-19T08:46:48.029Z,130
2017-04-19T08:47:13.565Z,125
2017-04-19T08:47:39.107Z,125
2017-04-19T08:48:04.598Z,125
2017-04-19T08:48:30.083Z,125
2017-04-19T08:48:55.571Z,125
2017-04-19T08:49:21.052Z,125
2017-04-19T08:49:46.530Z,130
2017-04-19T08:50:12.014Z,130
2017-04-19T08:50:37.536Z,130
2017-04-19T08:51:03.004Z,130
2017-04-19T08:51:28.477Z,135
2017-04-19T08:51:53.956Z,150
2017-04-19T08:52:19.468Z,165
2017-04-19T08:52:44.960Z,180
2017-04-19T08:53:10.503Z,190
2017-04-19T08:53:35.945Z,205
2017-04-19T08:54:01.434Z,215
2017-04-19T08:54:26.949Z,225
2017-04-19T08:54:52.413Z,215
2017-04-19T08:55:17.884Z,215
2017-04-19T08:55:43.367Z,220
2017-04-19T08:56:08.835Z,230
2017-04-19T08:56:34.353Z,240
2017-04-19T08:56:59.840Z,255
2017-04-19T08:57:25.334Z,265
2017-04-19T08:57:50.799Z,255
2017-04-19T08:58:16.293Z,235
2017-04-19T08:58:41.774Z,220
2017-04-19T08:59:07.270Z,205
2017-04-19T08:59:32.761Z,200
2017-04-19T08:59:58.295Z,200
2017-04-19T09:00:23.793Z,220
2017-04-19T09:00:49.285Z,235
2017-04-19T09:01:14.786Z,235
2017-04-19T09:01:40.247Z,215
2017-04-19T09:02:05.745Z,215
2017-04-19T09:02:31.229Z,200
2017-04-19T09:02:56.735Z,180
2017-04-19T09:03:22.226Z,180
2017-04-19T09:03:47.690Z,190
2017-04-19T09:04:13.182Z,190
2017-04-19T09:04:38.673Z,190
2017-04-19T09:05:04.130Z,205
2017-04-19T09:05:29.634Z,225
2017-04-19T09:05:55.121Z,235
2017-04-19T09:06:20.600Z,215
2017-04-19T09:06:46.075Z,200
2017-04-19T09:07:11.581Z,185
2017-04-19T09:07:37.071Z,180
2017-04-19T09:08:02.567Z,175
2017-04-19T09:08:28.079Z,170
2017-04-19T09:08:53.555Z,175
2017-04-19T09:09:19.056Z,170
2017-04-19T09:09:44.529Z,175
2017-04-19T09:10:10.014Z,180
2017-04-19T09:10:35.495Z,180
2017-04-19T09:11:00.993Z,175
2017-04-19T09:11:26.446Z,175
2017-04-19T09:11:51.928Z,180
2017-04-19T09:12:17.415Z,185
2017-04-19T09:12:42.880Z,190
2017-04-19T09:13:08.378Z,200
2017-04-19T09:13:33.880Z,200
2017-04-19T09:13:59.360Z,205
2017-04-19T09:14:24.859Z,215
2017-04-19T09:14:50.332Z,220
2017-04-19T09:15:15.830Z,225
2017-04-19T09:15:41.312Z,235
2017-04-19T09:16:06.800Z,240
2017-04-19T09:16:32.290Z,255
2017-04-19T09:16:57.807Z,255
2017-04-19T09:17:23.300Z,275
2017-04-19T09:17:48.800Z,295
2017-04-19T09:18:14.291Z,300
2017-04-19T09:18:39.771Z,290
2017-04-19T09:19:05.261Z,275
2017-04-19T09:19:30.752Z,250
2017-04-19T09:19:56.229Z,240
2017-04-19T09:20:21.718Z,225
2017-04-19T09:20:47.197Z,220
2017-04-19T09:21:12.695Z,210
2017-04-19T09:21:38.184Z,215
2017-04-19T09:22:03.668Z,220
2017-04-19T09:22:29.172Z,220
2017-04-19T09:22:54.664Z,215
2017-04-19T09:23:20.139Z,215
2017-04-19T09:23:45.624Z,215
2017-04-19T09:24:11.115Z,210
2017-04-19T09:24:36.613Z,200
2017-04-19T09:25:02.089Z,190
2017-04-19T09:25:27.558Z,185
2017-04-19T09:25:53.042Z,170
2017-04-19T09:26:18.546Z,170
2017-04-19T09:26:44.041Z,175
2017-04-19T09:27:09.535Z,190
2017-04-19T09:27:35.005Z,200
2017-04-19T09:28:00.509Z,200
2017-04-19T09:28:26.004Z,210
2017-04-19T09:28:51.477Z,205
2017-04-19T09:29:16.992Z,215
2017-04-19T09:29:42.521Z,225
2017-04-19T09:30:07.998Z,240
2017-04-19T09:30:33.504Z,255
2017-04-19T09:30:58.992Z,265
2017-04-19T09:31:24.477Z,270
2017-04-19T09:31:49.980Z,275
2017-04-19T09:32:15.487Z,285
2017-04-19T09:32:40.993Z,285
2017-04-19T09:33:06.453Z,285
2017-04-19T09:33:31.946Z,285
2017-04-19T09:33:57.419Z,285
2017-04-19T09:34:22.915Z,290
2017-04-19T09:34:48.401Z,290
2017-04-19T09:35:13.893Z,285
2017-04-19T09:35:39.388Z,290
2017-04-19T09:36:04.854Z,285
2017-04-19T09:36:30.322Z,275
2017-04-19T09:36:55.814Z,270
2017-04-19T09:37:21.313Z,265
2017-04-19T09:37:46.789Z,255
2017-04-19T09:38:12.280Z,265
2017-04-19T09:38:37.750Z,270
2017-04-19T09:39:03.241Z,255
2017-04-19T09:39:28.724Z,245
2017-04-19T09:39:54.216Z,260
2017-04-19T09:40:19.682Z,265
2017-04-19T09:40:45.162Z,250
2017-04-19T09:41:10.661Z,250
2017-04-19T09:41:36.139Z,250
2017-04-19T09:42:01.641Z,250
2017-04-19T09:42:27.122Z,240
2017-04-19T09:42:52.622Z,235
2017-04-19T09:43:18.104Z,240
2017-04-19T09:43:43.587Z,250
2017-04-19T09:44:09.093Z,235
2017-04-19T09:44:34.558Z,230
2017-04-19T09:45:00.050Z,230
2017-04-19T09:45:25.569Z,235
2017-04-19T09:45:51.025Z,255
2017-04-19T09:46:16.506Z,285
2017-04-19T09:46:42.026Z,310
2017-04-19T09:47:07.500Z,310
2017-04-19T09:47:32.982Z,300
2017-04-19T09:47:58.452Z,285
2017-04-19T09:48:23.933Z,270
2017-04-19T09:48:49.424Z,255
2017-04-19T09:49:14.907Z,245
2017-04-19T09:49:40.376Z,245
2017-04-19T09:50:05.865Z,240
2017-04-19T09:50:31.368Z,235
2017-04-19T09:50:56.850Z,235
2017-04-19T09:51:22.364Z,240
2017-04-19T09:51:47.862Z,240
2017-04-19T09:52:13.353Z,240
2017-04-19T09:52:38.858Z,245
2017-04-19T09:53:04.326Z,255
2017-04-19T09:53:29.833Z,265
2017-04-19T09:53:55.305Z,265
2017-04-19T09:54:20.814Z,270
2017-04-19T09:54:46.298Z,275
2017-04-19T09:55:11.804Z,285
2017-04-19T09:55:37.296Z,290
2017-04-19T09:56:02.781Z,295
2017-04-19T09:56:28.249Z,295
2017-04-19T09:56:53.734Z,295
2017-04-19T09:57:19.294Z,290
2017-04-19T09:57:44.775Z,285
2017-04-19T09:58:10.260Z,265
2017-04-19T09:58:35.767Z,250
2017-04-19T09:59:01.258Z,235
2017-04-19T09:59:26.777Z,230
2017-04-19T09:59:52.252Z,225
2017-04-19T10:00:17.750Z,230